createdAt,value
2019-04-09T10:22:04.621Z,35.73
2019-04-09T10:27:20.346Z,34.40
2019-04-09T10:32:58.527Z,35.40
2019-04-09T10:38:39.619Z,35.75
2019-04-09T10:44:19.413Z,35.00
2019-04-09T10:49:43.805Z,33.10
2019-04-09T10:55:25.154Z,34.75
2019-04-09T11:00:56.609Z,32.23
2019-04-09T11:06:20.753Z,33.25
2019-04-09T11:11:54.124Z,31.62
2019-04-09T11:17:21.397Z,30.60
2019-04-09T11:22:36.990Z,33.50
2019-04-09T11:28:05.159Z,34.40
2019-04-09T11:33:29.311Z,32.85
2019-04-09T11:38:52.729Z,33.15
2019-04-09T11:44:18.583Z,34.10
2019-04-09T11:49:45.526Z,30.70
2019-04-09T11:55:09.527Z,33.83
2019-04-09T12:06:27.124Z,33.92
2019-04-09T12:12:13.768Z,34.50
2019-04-09T12:17:55.971Z,32.00
2019-04-09T12:23:38.385Z,27.13
2019-04-09T12:29:24.989Z,30.47
2019-04-09T12:35:06.169Z,27.40
2019-04-09T12:40:57.224Z,28.12
2019-04-09T12:46:32.031Z,31.10
2019-04-09T12:51:49.238Z,33.00
2019-04-09T12:57:09.966Z,31.33
2019-04-09T13:02:42.771Z,30.80
2019-04-09T13:08:09.663Z,29.60
2019-04-09T13:13:34.784Z,32.55
2019-04-09T13:19:19.792Z,33.98
2019-04-09T13:24:47.318Z,31.95
2019-04-09T13:30:13.671Z,34.70
2019-04-09T13:35:40.734Z,32.93
2019-04-09T13:41:34.122Z,31.70
2019-04-09T13:47:01.308Z,30.50
2019-04-09T13:52:18.490Z,31.87
2019-04-09T13:57:23.389Z,31.05
2019-04-09T14:02:29.328Z,30.85
2019-04-09T14:07:34.325Z,27.20
2019-04-09T14:12:41.697Z,28.30
2019-04-09T14:17:49.320Z,26.75
2019-04-09T14:22:59.744Z,28.27
2019-04-09T14:28:15.469Z,30.10
2019-04-09T14:33:20.727Z,26.13
2019-04-09T14:38:26.057Z,28.50
2019-04-09T14:43:31.345Z,25.68
2019-04-09T14:48:37.225Z,25.60
2019-04-09T14:53:43.277Z,23.02
2019-04-09T14:58:49.231Z,24.02
2019-04-09T15:03:54.237Z,25.82
2019-04-09T15:08:58.909Z,27.07
2019-04-09T15:14:03.771Z,27.62
2019-04-09T15:19:13.481Z,28.20
2019-04-09T15:24:18.060Z,27.40
2019-04-09T15:29:25.194Z,27.67
2019-04-09T15:34:37.341Z,24.73
2019-04-09T15:39:38.098Z,18.87
2019-04-09T15:44:42.433Z,19.60
2019-04-09T15:49:46.809Z,25.27
2019-04-09T15:54:51.262Z,27.07
2019-04-09T15:59:55.520Z,28.90
2019-04-09T16:05:00.913Z,30.10
2019-04-09T16:10:05.986Z,28.98
2019-04-09T16:15:10.740Z,33.90
